x

Smith Island, Wa (sisw1) Weather Station

12:00am - Sun 28th May 2017 All times are PDT. -7 hours from GMT.

  • Wind
    3mph, 5mph gusts
  • 空気 Temp 53°f
  • Sea Pressure 1018.3mb
  • Smith Island, Wa
  • Smith Island, Wa

More Historic Weather Station data

Upgrade to MSW Pro to gain access to the past 30 days of data for over 8000 Wavebouys and Weather Stations around the globe.

Join Pro

Comparision Forecast

View Surf forecast
   
Sun 05/28 12:00am 3 5 mph 1018.3mb 53f
Sat 05/27 11:00pm  -  2 mph 1018.2mb 52f
10:00pm 9 10 mph 1017.9mb 53f
9:00pm 5 6 mph 1017.9mb 53f
8:00pm 9 10 mph 1017.7mb 55f
7:00pm 8 9 mph 1017.9mb 56f
6:00pm 13 13 mph 1018.1mb 58f
5:00pm 8 8 mph 1018.3mb 59f
4:00pm 5 5 mph 1018.7mb 62f
3:00pm 5 6 mph 1019.2mb 60f
2:00pm 3 5 mph 1019.5mb 58f
1:00pm 3 5 mph 1019.6mb 56f
12:00pm 2 3 mph 1019.8mb 54f
11:00am 3 5 mph 1019.7mb 55f
10:00am 2 3 mph 1019.5mb 54f
9:00am 3 3 mph 1019.3mb 52f
8:00am 2 3 mph 1018.8mb 51f
7:00am 5 5 mph 1018.3mb 51f
6:00am 11 11 mph 1017.8mb 51f
5:00am 11 13 mph 1017.5mb 51f
4:00am 11 13 mph 1017.3mb 51f
3:00am 9 10 mph 1017.2mb 51f
2:00am 5 6 mph 1016.8mb 51f
1:00am 6 8 mph 1016.5mb 53f
12:00am 11 13 mph 1016mb 53f
Fri 05/26 11:00pm 7 8 mph 1016mb 53f
10:00pm 8 9 mph 1015.9mb 54f
9:00pm 10 15 mph 1015.4mb 54f
8:00pm 5 7 mph 1015.4mb 56f
7:00pm 9 9 mph 1015.1mb 56f
6:00pm 9 11 mph 1015.1mb 57f
5:00pm 5 5 mph 1014.9mb 62f
4:00pm 6 7 mph 1014.9mb 60f
3:00pm 6 6 mph 1015mb 59f
2:00pm 5 6 mph 1015.2mb 60f
1:00pm 5 6 mph 1015.3mb 56f
12:00pm 3 3 mph 1015.3mb 55f
11:00am 2 3 mph 1015.3mb 55f
10:00am 1 3 mph 1015.2mb 57f
9:00am 2 5 mph 1015mb 54f
8:00am  -  0 mph 1014.8mb 53f
7:00am  -  0 mph 1014.3mb 52f
6:00am 6 7 mph 1013.9mb 50f
5:00am 8 9 mph 1013.4mb 50f
4:00am 5 5 mph 1013.3mb 50f
3:00am 2 3 mph 1013mb 51f
2:00am 1 2 mph 1012.8mb 51f
1:00am 6 8 mph 1012.6mb 52f
12:00am 6 7 mph 1012.4mb 51f
Thu 05/25 11:00pm 6 7 mph 1012.5mb 51f
10:00pm 3 5 mph 1012.2mb 51f
9:00pm 10 11 mph 1011.5mb 52f
8:00pm 10 11 mph 1011.3mb 54f
7:00pm 13 16 mph 1011.1mb 54f
6:00pm 8 9 mph 1011mb 57f
5:00pm 8 9 mph 1010.9mb 57f
4:00pm 9 9 mph 1011.5mb 56f
3:00pm 7 7 mph 1012.1mb 56f
2:00pm 7 9 mph 1012.5mb 57f
1:00pm 7 8 mph 1012.8mb 55f
12:00pm 5 6 mph 1013.1mb 55f
11:00am  -  1 mph 1013.1mb 53f
10:00am  -  0 mph 1013.3mb 52f
9:00am  -  0 mph 1013.4mb 51f
8:00am  -  1 mph 1013.2mb 52f
7:00am 1 1 mph 1013.2mb 49f
6:00am 3 5 mph 1013.1mb 49f
5:00am  -  0 mph 1013mb 49f
4:00am 3 3 mph 1013mb 49f
3:00am 3 5 mph 1013mb 49f
2:00am 3 5 mph 1013.2mb 50f
1:00am 5 5 mph 1013.2mb 50f
12:00am 5 5 mph 1013.6mb 50f
Wed 05/24 11:00pm 3 3 mph 1013.9mb 51f
10:00pm 1 1 mph 1014.2mb 51f
9:00pm 2 3 mph 1014.1mb 53f
8:00pm 3 3 mph 1014.3mb 55f
7:00pm 3 5 mph 1014.2mb 55f
6:00pm 5 5 mph 1014.7mb 55f
5:00pm 9 10 mph 1014.9mb 55f
4:00pm 8 9 mph 1015.5mb 57f
3:00pm 6 7 mph 1015.8mb 56f
2:00pm 6 8 mph 1015.8mb 56f
1:00pm 9 11 mph 1016mb 55f
12:00pm 8 10 mph 1016.7mb 52f
11:00am 9 11 mph 1016.9mb 51f
10:00am 7 8 mph 1017.3mb 51f
9:00am 15 21 mph 1017mb 50f